sensor_id;sensor_type;location;lat;lon;timestamp;pressure;altitude;pressure_sealevel;temperature
80962;BMP280;70424;55.154;14.722;2024-01-30T00:01:19;102637.94;;;3.75
80962;BMP280;70424;55.154;14.722;2024-01-30T00:03:44;102643.84;;;3.79
80962;BMP280;70424;55.154;14.722;2024-01-30T00:06:11;102626.63;;;3.66
80962;BMP280;70424;55.154;14.722;2024-01-30T00:08:36;102617.00;;;3.59
80962;BMP280;70424;55.154;14.722;2024-01-30T00:11:02;102632.53;;;3.70
80962;BMP280;70424;55.154;14.722;2024-01-30T00:13:27;102646.03;;;3.75
80962;BMP280;70424;55.154;14.722;2024-01-30T00:15:52;102633.75;;;3.69
80962;BMP280;70424;55.154;14.722;2024-01-30T00:18:19;102626.34;;;3.63
80962;BMP280;70424;55.154;14.722;2024-01-30T00:20:44;102628.06;;;3.61
80962;BMP280;70424;55.154;14.722;2024-01-30T00:23:10;102628.53;;;3.54
80962;BMP280;70424;55.154;14.722;2024-01-30T00:25:35;102636.69;;;3.65
80962;BMP280;70424;55.154;14.722;2024-01-30T00:28:01;102613.47;;;3.42
80962;BMP280;70424;55.154;14.722;2024-01-30T00:30:26;102608.56;;;3.40
80962;BMP280;70424;55.154;14.722;2024-01-30T00:32:51;102621.88;;;3.49
80962;BMP280;70424;55.154;14.722;2024-01-30T00:35:17;102626.53;;;3.49
80962;BMP280;70424;55.154;14.722;2024-01-30T00:37:42;102624.81;;;3.51
80962;BMP280;70424;55.154;14.722;2024-01-30T00:40:08;102632.44;;;3.53
80962;BMP280;70424;55.154;14.722;2024-01-30T00:42:35;102632.44;;;3.47
80962;BMP280;70424;55.154;14.722;2024-01-30T00:45:00;102620.09;;;3.35
80962;BMP280;70424;55.154;14.722;2024-01-30T00:47:26;102647.19;;;3.46
80962;BMP280;70424;55.154;14.722;2024-01-30T00:49:51;102646.44;;;3.46
80962;BMP280;70424;55.154;14.722;2024-01-30T00:52:17;102654.56;;;3.46
80962;BMP280;70424;55.154;14.722;2024-01-30T00:54:42;102636.31;;;3.35
80962;BMP280;70424;55.154;14.722;2024-01-30T00:57:08;102626.69;;;3.28
80962;BMP280;70424;55.154;14.722;2024-01-30T00:59:33;102622.50;;;3.22
80962;BMP280;70424;55.154;14.722;2024-01-30T01:01:59;102631.09;;;3.31
80962;BMP280;70424;55.154;14.722;2024-01-30T01:04:25;102646.63;;;3.37
80962;BMP280;70424;55.154;14.722;2024-01-30T01:06:51;102621.00;;;3.21
80962;BMP280;70424;55.154;14.722;2024-01-30T01:09:17;102618.78;;;3.19
80962;BMP280;70424;55.154;14.722;2024-01-30T01:11:42;102622.97;;;3.20
80962;BMP280;70424;55.154;14.722;2024-01-30T01:14:08;102625.41;;;3.18
80962;BMP280;70424;55.154;14.722;2024-01-30T01:16:33;102624.94;;;3.25
80962;BMP280;70424;55.154;14.722;2024-01-30T01:18:59;102633.56;;;3.24
80962;BMP280;70424;55.154;14.722;2024-01-30T01:21:25;102625.41;;;3.18
80962;BMP280;70424;55.154;14.722;2024-01-30T01:23:51;102636.25;;;3.24
80962;BMP280;70424;55.154;14.722;2024-01-30T01:26:16;102637.69;;;3.25
80962;BMP280;70424;55.154;14.722;2024-01-30T01:28:41;102633.25;;;3.16
80962;BMP280;70424;55.154;14.722;2024-01-30T01:31:07;102641.66;;;3.24
80962;BMP280;70424;55.154;14.722;2024-01-30T01:33:33;102652.00;;;3.31
80962;BMP280;70424;55.154;14.722;2024-01-30T01:35:59;102636.94;;;3.19
80962;BMP280;70424;55.154;14.722;2024-01-30T01:38:25;102649.28;;;3.31
80962;BMP280;70424;55.154;14.722;2024-01-30T01:40:50;102619.50;;;3.14
80962;BMP280;70424;55.154;14.722;2024-01-30T01:43:16;102625.19;;;3.27
80962;BMP280;70424;55.154;14.722;2024-01-30T01:45:42;102640.19;;;3.28
80962;BMP280;70424;55.154;14.722;2024-01-30T01:48:07;102639.00;;;3.35
80962;BMP280;70424;55.154;14.722;2024-01-30T01:50:34;102653.56;;;3.43
80962;BMP280;70424;55.154;14.722;2024-01-30T01:53:00;102653.81;;;3.51
80962;BMP280;70424;55.154;14.722;2024-01-30T01:55:26;102634.59;;;3.38
80962;BMP280;70424;55.154;14.722;2024-01-30T01:57:53;102638.06;;;3.44
80962;BMP280;70424;55.154;14.722;2024-01-30T02:00:19;102639.56;;;3.50
80962;BMP280;70424;55.154;14.722;2024-01-30T02:02:45;102646.50;;;3.62
80962;BMP280;70424;55.154;14.722;2024-01-30T02:05:11;102635.19;;;3.64
80962;BMP280;70424;55.154;14.722;2024-01-30T02:07:37;102617.69;;;3.54
80962;BMP280;70424;55.154;14.722;2024-01-30T02:10:03;102606.16;;;3.48
80962;BMP280;70424;55.154;14.722;2024-01-30T02:12:29;102611.59;;;3.59
80962;BMP280;70424;55.154;14.722;2024-01-30T02:14:55;102629.31;;;3.71
80962;BMP280;70424;55.154;14.722;2024-01-30T02:17:20;102607.91;;;3.62
80962;BMP280;70424;55.154;14.722;2024-01-30T02:19:46;102624.94;;;3.74
80962;BMP280;70424;55.154;14.722;2024-01-30T02:22:12;102620.97;;;3.80
80962;BMP280;70424;55.154;14.722;2024-01-30T02:24:38;102602.28;;;3.66
80962;BMP280;70424;55.154;14.722;2024-01-30T02:27:03;102618.31;;;3.86
80962;BMP280;70424;55.154;14.722;2024-01-30T02:29:29;102600.78;;;3.76
80962;BMP280;70424;55.154;14.722;2024-01-30T02:31:54;102611.16;;;3.83
80962;BMP280;70424;55.154;14.722;2024-01-30T02:34:20;102598.59;;;3.80
80962;BMP280;70424;55.154;14.722;2024-01-30T02:36:45;102605.25;;;3.84
80962;BMP280;70424;55.154;14.722;2024-01-30T02:39:11;102611.94;;;3.95
80962;BMP280;70424;55.154;14.722;2024-01-30T02:41:36;102599.84;;;3.90
80962;BMP280;70424;55.154;14.722;2024-01-30T02:44:03;102604.31;;;3.93
80962;BMP280;70424;55.154;14.722;2024-01-30T02:46:28;102609.44;;;3.97
80962;BMP280;70424;55.154;14.722;2024-01-30T02:48:54;102604.78;;;3.97
80962;BMP280;70424;55.154;14.722;2024-01-30T02:51:19;102599.38;;;3.92
80962;BMP280;70424;55.154;14.722;2024-01-30T02:53:44;102604.03;;;3.97
80962;BMP280;70424;55.154;14.722;2024-01-30T02:56:10;102593.72;;;3.95
80962;BMP280;70424;55.154;14.722;2024-01-30T02:58:36;102602.06;;;3.97
80962;BMP280;70424;55.154;14.722;2024-01-30T03:01:02;102610.00;;;4.12
80962;BMP280;70424;55.154;14.722;2024-01-30T03:03:28;102586.84;;;4.00
80962;BMP280;70424;55.154;14.722;2024-01-30T03:05:53;102584.38;;;4.02
80962;BMP280;70424;55.154;14.722;2024-01-30T03:08:19;102608.50;;;4.16
80962;BMP280;70424;55.154;14.722;2024-01-30T03:10:44;102585.09;;;4.02
80962;BMP280;70424;55.154;14.722;2024-01-30T03:13:10;102584.16;;;4.05
80962;BMP280;70424;55.154;14.722;2024-01-30T03:15:35;102590.28;;;4.06
80962;BMP280;70424;55.154;14.722;2024-01-30T03:18:02;102566.44;;;3.93
80962;BMP280;70424;55.154;14.722;2024-01-30T03:20:29;102614.66;;;4.23
80962;BMP280;70424;55.154;14.722;2024-01-30T03:22:55;102611.47;;;4.24
80962;BMP280;70424;55.154;14.722;2024-01-30T03:25:20;102594.97;;;4.16
80962;BMP280;70424;55.154;14.722;2024-01-30T03:27:46;102600.38;;;4.16
80962;BMP280;70424;55.154;14.722;2024-01-30T03:30:11;102589.06;;;4.12
80962;BMP280;70424;55.154;14.722;2024-01-30T03:32:37;102600.66;;;4.24
80962;BMP280;70424;55.154;14.722;2024-01-30T03:35:02;102610.47;;;4.27
80962;BMP280;70424;55.154;14.722;2024-01-30T03:37:28;102579.22;;;4.20
80962;BMP280;70424;55.154;14.722;2024-01-30T03:39:53;102581.19;;;4.20
80962;BMP280;70424;55.154;14.722;2024-01-30T03:42:18;102584.66;;;4.26
80962;BMP280;70424;55.154;14.722;2024-01-30T03:44:44;102588.06;;;4.21
80962;BMP280;70424;55.154;14.722;2024-01-30T03:47:09;102589.56;;;4.22
80962;BMP280;70424;55.154;14.722;2024-01-30T03:49:35;102594.72;;;4.26
80962;BMP280;70424;55.154;14.722;2024-01-30T03:52:00;102578.47;;;4.20
80962;BMP280;70424;55.154;14.722;2024-01-30T03:54:25;102588.06;;;4.21
80962;BMP280;70424;55.154;14.722;2024-01-30T03:56:51;102589.81;;;4.24
80962;BMP280;70424;55.154;14.722;2024-01-30T03:59:16;102614.16;;;4.41
80962;BMP280;70424;55.154;14.722;2024-01-30T04:01:43;102590.31;;;4.28
80962;BMP280;70424;55.154;14.722;2024-01-30T04:04:08;102582.91;;;4.23
80962;BMP280;70424;55.154;14.722;2024-01-30T04:06:33;102609.97;;;4.40
80962;BMP280;70424;55.154;14.722;2024-01-30T04:08:59;102599.44;;;4.31
80962;BMP280;70424;55.154;14.722;2024-01-30T04:11:24;102592.78;;;4.32
80962;BMP280;70424;55.154;14.722;2024-01-30T04:13:50;102579.22;;;4.26
80962;BMP280;70424;55.154;14.722;2024-01-30T04:16:21;102605.81;;;4.44
80962;BMP280;70424;55.154;14.722;2024-01-30T04:18:47;102608.75;;;4.46
80962;BMP280;70424;55.154;14.722;2024-01-30T04:21:13;102613.69;;;4.48
80962;BMP280;70424;55.154;14.722;2024-01-30T04:23:40;102593.75;;;4.34
80962;BMP280;70424;55.154;14.722;2024-01-30T04:26:05;102607.28;;;4.45
80962;BMP280;70424;55.154;14.722;2024-01-30T04:28:31;102608.75;;;4.46
80962;BMP280;70424;55.154;14.722;2024-01-30T04:30:56;102598.91;;;4.43
80962;BMP280;70424;55.154;14.722;2024-01-30T04:33:21;102588.59;;;4.31
80962;BMP280;70424;55.154;14.722;2024-01-30T04:35:47;102603.56;;;4.43
80962;BMP280;70424;55.154;14.722;2024-01-30T04:38:12;102599.16;;;4.45
80962;BMP280;70424;55.154;14.722;2024-01-30T04:40:39;102613.19;;;4.49
80962;BMP280;70424;55.154;14.722;2024-01-30T04:43:05;102599.66;;;4.44
80962;BMP280;70424;55.154;14.722;2024-01-30T04:45:30;102585.13;;;4.36
80962;BMP280;70424;55.154;14.722;2024-01-30T04:47:56;102596.69;;;4.42
80962;BMP280;70424;55.154;14.722;2024-01-30T04:50:21;102601.63;;;4.49
80962;BMP280;70424;55.154;14.722;2024-01-30T04:52:46;102604.31;;;4.55
80962;BMP280;70424;55.154;14.722;2024-01-30T04:55:12;102587.09;;;4.46
80962;BMP280;70424;55.154;14.722;2024-01-30T04:57:37;102614.19;;;4.63
80962;BMP280;70424;55.154;14.722;2024-01-30T05:00:03;102600.88;;;4.60
80962;BMP280;70424;55.154;14.722;2024-01-30T05:02:29;102598.88;;;4.60
80962;BMP280;70424;55.154;14.722;2024-01-30T05:04:54;102577.50;;;4.45
80962;BMP280;70424;55.154;14.722;2024-01-30T05:07:19;102582.19;;;4.51
80962;BMP280;70424;55.154;14.722;2024-01-30T05:09:45;102599.19;;;4.57
80962;BMP280;70424;55.154;14.722;2024-01-30T05:12:10;102583.88;;;4.48
80962;BMP280;70424;55.154;14.722;2024-01-30T05:14:36;102581.19;;;4.48
80962;BMP280;70424;55.154;14.722;2024-01-30T05:17:01;102586.09;;;4.55
80962;BMP280;70424;55.154;14.722;2024-01-30T05:19:28;102613.91;;;4.67
80962;BMP280;70424;55.154;14.722;2024-01-30T05:21:53;102609.72;;;4.66
80962;BMP280;70424;55.154;14.722;2024-01-30T05:24:19;102590.53;;;4.58
80962;BMP280;70424;55.154;14.722;2024-01-30T05:26:44;102592.25;;;4.61
80962;BMP280;70424;55.154;14.722;2024-01-30T05:29:10;102597.91;;;4.63
80962;BMP280;70424;55.154;14.722;2024-01-30T05:31:35;102596.69;;;4.64
80962;BMP280;70424;55.154;14.722;2024-01-30T05:34:01;102607.25;;;4.68
80962;BMP280;70424;55.154;14.722;2024-01-30T05:36:26;102591.06;;;4.57
80962;BMP280;70424;55.154;14.722;2024-01-30T05:38:52;102595.22;;;4.58
80962;BMP280;70424;55.154;14.722;2024-01-30T05:41:17;102589.09;;;4.57
80962;BMP280;70424;55.154;14.722;2024-01-30T05:43:43;102604.56;;;4.68
80962;BMP280;70424;55.154;14.722;2024-01-30T05:46:08;102599.13;;;4.68
80962;BMP280;70424;55.154;14.722;2024-01-30T05:48:34;102604.06;;;4.64
80962;BMP280;70424;55.154;14.722;2024-01-30T05:51:01;102606.53;;;4.73
80962;BMP280;70424;55.154;14.722;2024-01-30T05:53:26;102581.19;;;4.54
80962;BMP280;70424;55.154;14.722;2024-01-30T05:55:52;102596.41;;;4.62
80962;BMP280;70424;55.154;14.722;2024-01-30T05:58:17;102590.75;;;4.60
80962;BMP280;70424;55.154;14.722;2024-01-30T06:00:43;102577.25;;;4.55
80962;BMP280;70424;55.154;14.722;2024-01-30T06:03:08;102587.31;;;4.60
80962;BMP280;70424;55.154;14.722;2024-01-30T06:05:33;102599.13;;;4.68
80962;BMP280;70424;55.154;14.722;2024-01-30T06:07:59;102577.25;;;4.55
80962;BMP280;70424;55.154;14.722;2024-01-30T06:10:24;102575.53;;;4.57
80962;BMP280;70424;55.154;14.722;2024-01-30T06:12:49;102588.06;;;4.60
80962;BMP280;70424;55.154;14.722;2024-01-30T06:15:15;102591.25;;;4.64
80962;BMP280;70424;55.154;14.722;2024-01-30T06:17:40;102589.53;;;4.61
80962;BMP280;70424;55.154;14.722;2024-01-30T06:20:06;102593.47;;;4.66
80962;BMP280;70424;55.154;14.722;2024-01-30T06:22:32;102611.91;;;4.78
80962;BMP280;70424;55.154;14.722;2024-01-30T06:24:57;102600.13;;;4.76
80962;BMP280;70424;55.154;14.722;2024-01-30T06:27:22;102586.34;;;4.63
80962;BMP280;70424;55.154;14.722;2024-01-30T06:29:48;102585.34;;;4.60
80962;BMP280;70424;55.154;14.722;2024-01-30T06:32:13;102605.28;;;4.68
80962;BMP280;70424;55.154;14.722;2024-01-30T06:34:39;102601.84;;;4.73
80962;BMP280;70424;55.154;14.722;2024-01-30T06:37:05;102625.47;;;4.84
80962;BMP280;70424;55.154;14.722;2024-01-30T06:39:31;102593.25;;;4.69
80962;BMP280;70424;55.154;14.722;2024-01-30T06:41:56;102615.88;;;4.83
80962;BMP280;70424;55.154;14.722;2024-01-30T06:44:22;102602.81;;;4.76
80962;BMP280;70424;55.154;14.722;2024-01-30T06:46:47;102589.03;;;4.68
80962;BMP280;70424;55.154;14.722;2024-01-30T06:49:12;102582.13;;;4.62
80962;BMP280;70424;55.154;14.722;2024-01-30T06:51:38;102593.47;;;4.77
80962;BMP280;70424;55.154;14.722;2024-01-30T06:54:04;102601.56;;;4.88
80962;BMP280;70424;55.154;14.722;2024-01-30T06:56:29;102567.38;;;4.68
80962;BMP280;70424;55.154;14.722;2024-01-30T06:58:55;102608.94;;;4.88
80962;BMP280;70424;55.154;14.722;2024-01-30T07:01:20;102583.13;;;4.75
80962;BMP280;70424;55.154;14.722;2024-01-30T07:03:46;102588.28;;;4.79
80962;BMP280;70424;55.154;14.722;2024-01-30T07:06:11;102607.25;;;4.90
80962;BMP280;70424;55.154;14.722;2024-01-30T07:08:37;102609.44;;;4.92
80962;BMP280;70424;55.154;14.722;2024-01-30T07:11:05;102614.13;;;4.91
80962;BMP280;70424;55.154;14.722;2024-01-30T07:13:31;102598.63;;;4.86
80962;BMP280;70424;55.154;14.722;2024-01-30T07:15:56;102582.84;;;4.79
80962;BMP280;70424;55.154;14.722;2024-01-30T07:18:22;102589.75;;;4.80
80962;BMP280;70424;55.154;14.722;2024-01-30T07:20:47;102596.41;;;4.85
80962;BMP280;70424;55.154;14.722;2024-01-30T07:23:14;102593.44;;;4.88
80962;BMP280;70424;55.154;14.722;2024-01-30T07:25:42;102599.13;;;4.90
80962;BMP280;70424;55.154;14.722;2024-01-30T07:28:08;102593.19;;;4.92
80962;BMP280;70424;55.154;14.722;2024-01-30T07:30:37;102606.47;;;4.95
80962;BMP280;70424;55.154;14.722;2024-01-30T07:33:03;102607.69;;;4.94
80962;BMP280;70424;55.154;14.722;2024-01-30T07:35:28;102585.56;;;4.85
80962;BMP280;70424;55.154;14.722;2024-01-30T07:37:54;102604.50;;;4.96
80962;BMP280;70424;55.154;14.722;2024-01-30T07:40:19;102606.44;;;5.01
80962;BMP280;70424;55.154;14.722;2024-01-30T07:42:45;102595.41;;;4.93
80962;BMP280;70424;55.154;14.722;2024-01-30T07:45:11;102612.38;;;5.05
80962;BMP280;70424;55.154;14.722;2024-01-30T07:47:36;102598.59;;;4.97
80962;BMP280;70424;55.154;14.722;2024-01-30T07:50:02;102590.72;;;4.94
80962;BMP280;70424;55.154;14.722;2024-01-30T07:52:27;102603.50;;;4.99
80962;BMP280;70424;55.154;14.722;2024-01-30T07:57:57;102611.63;;;5.10
80962;BMP280;70424;55.154;14.722;2024-01-30T08:00:24;102594.88;;;5.00
80962;BMP280;70424;55.154;14.722;2024-01-30T08:02:49;102605.19;;;5.07
80962;BMP280;70424;55.154;14.722;2024-01-30T08:05:15;102601.03;;;5.06
80962;BMP280;70424;55.154;14.722;2024-01-30T08:07:41;102602.22;;;5.11
80962;BMP280;70424;55.154;14.722;2024-01-30T08:10:11;102604.94;;;5.17
80962;BMP280;70424;55.154;14.722;2024-01-30T08:12:37;102589.94;;;5.04
80962;BMP280;70424;55.154;14.722;2024-01-30T08:15:03;102591.91;;;5.10
80962;BMP280;70424;55.154;14.722;2024-01-30T08:17:28;102581.31;;;5.06
80962;BMP280;70424;55.154;14.722;2024-01-30T08:19:54;102601.22;;;5.20
80962;BMP280;70424;55.154;14.722;2024-01-30T08:22:19;102567.53;;;5.04
80962;BMP280;70424;55.154;14.722;2024-01-30T08:24:45;102595.06;;;5.19
80962;BMP280;70424;55.154;14.722;2024-01-30T08:27:10;102584.22;;;5.19
80962;BMP280;70424;55.154;14.722;2024-01-30T08:29:36;102596.28;;;5.24
80962;BMP280;70424;55.154;14.722;2024-01-30T08:32:01;102569.50;;;5.09
80962;BMP280;70424;55.154;14.722;2024-01-30T08:34:27;102584.47;;;5.21
80962;BMP280;70424;55.154;14.722;2024-01-30T08:36:53;102605.84;;;5.30
80962;BMP280;70424;55.154;14.722;2024-01-30T08:39:18;102578.56;;;5.17
80962;BMP280;70424;55.154;14.722;2024-01-30T08:41:44;102576.09;;;5.14
80962;BMP280;70424;55.154;14.722;2024-01-30T08:44:10;102601.22;;;5.25
80962;BMP280;70424;55.154;14.722;2024-01-30T08:46:36;102586.19;;;5.19
80962;BMP280;70424;55.154;14.722;2024-01-30T08:49:01;102595.03;;;5.25
80962;BMP280;70424;55.154;14.722;2024-01-30T08:51:28;102606.09;;;5.32
80962;BMP280;70424;55.154;14.722;2024-01-30T08:53:53;102605.59;;;5.34
80962;BMP280;70424;55.154;14.722;2024-01-30T08:56:19;102581.00;;;5.21
80962;BMP280;70424;55.154;14.722;2024-01-30T08:58:44;102581.50;;;5.25
80962;BMP280;70424;55.154;14.722;2024-01-30T09:01:10;102593.53;;;5.29
80962;BMP280;70424;55.154;14.722;2024-01-30T09:03:35;102597.94;;;5.38
80962;BMP280;70424;55.154;14.722;2024-01-30T09:06:02;102590.81;;;5.35
80962;BMP280;70424;55.154;14.722;2024-01-30T09:08:28;102576.06;;;5.25
80962;BMP280;70424;55.154;14.722;2024-01-30T09:10:53;102603.06;;;5.47
80962;BMP280;70424;55.154;14.722;2024-01-30T09:13:19;102598.91;;;5.41
80962;BMP280;70424;55.154;14.722;2024-01-30T09:15:44;102600.59;;;5.49
80962;BMP280;70424;55.154;14.722;2024-01-30T09:18:09;102582.59;;;5.46
80962;BMP280;70424;55.154;14.722;2024-01-30T09:20:35;102560.47;;;5.42
80962;BMP280;70424;55.154;14.722;2024-01-30T09:23:00;102573.19;;;5.53
80962;BMP280;70424;55.154;14.722;2024-01-30T09:25:26;102590.69;;;5.57
80962;BMP280;70424;55.154;14.722;2024-01-30T09:27:51;102580.31;;;5.61
80962;BMP280;70424;55.154;14.722;2024-01-30T09:30:17;102574.88;;;5.61
80962;BMP280;70424;55.154;14.722;2024-01-30T09:32:42;102573.41;;;5.60
80962;BMP280;70424;55.154;14.722;2024-01-30T09:35:08;102565.50;;;5.62
80962;BMP280;70424;55.154;14.722;2024-01-30T09:37:34;102566.22;;;5.63
80962;BMP280;70424;55.154;14.722;2024-01-30T09:39:59;102553.97;;;5.56
80962;BMP280;70424;55.154;14.722;2024-01-30T09:42:32;102575.81;;;5.75
80962;BMP280;70424;55.154;14.722;2024-01-30T09:44:58;102562.25;;;5.70
80962;BMP280;70424;55.154;14.722;2024-01-30T09:47:24;102571.06;;;5.76
80962;BMP280;70424;55.154;14.722;2024-01-30T09:49:50;102576.47;;;5.81
80962;BMP280;70424;55.154;14.722;2024-01-30T09:52:16;102561.66;;;5.82
80962;BMP280;70424;55.154;14.722;2024-01-30T09:54:42;102551.13;;;5.73
80962;BMP280;70424;55.154;14.722;2024-01-30T09:57:08;102557.00;;;5.77
80962;BMP280;70424;55.154;14.722;2024-01-30T09:59:34;102558.44;;;5.84
80962;BMP280;70424;55.154;14.722;2024-01-30T10:02:00;102568.50;;;5.94
80962;BMP280;70424;55.154;14.722;2024-01-30T10:04:26;102544.38;;;5.85
80962;BMP280;70424;55.154;14.722;2024-01-30T10:06:51;102552.19;;;5.94
80962;BMP280;70424;55.154;14.722;2024-01-30T10:09:16;102546.28;;;5.90
80962;BMP280;70424;55.154;14.722;2024-01-30T10:11:42;102552.44;;;5.91
80962;BMP280;70424;55.154;14.722;2024-01-30T10:14:07;102546.97;;;6.02
80962;BMP280;70424;55.154;14.722;2024-01-30T10:16:34;102558.72;;;6.10
80962;BMP280;70424;55.154;14.722;2024-01-30T10:19:00;102541.06;;;5.98
80962;BMP280;70424;55.154;14.722;2024-01-30T10:21:25;102558.22;;;6.12
80962;BMP280;70424;55.154;14.722;2024-01-30T10:23:50;102557.00;;;6.13
80962;BMP280;70424;55.154;14.722;2024-01-30T10:26:16;102537.56;;;6.03
80962;BMP280;70424;55.154;14.722;2024-01-30T10:28:42;102538.09;;;6.02
80962;BMP280;70424;55.154;14.722;2024-01-30T10:31:08;102536.78;;;6.08
80962;BMP280;70424;55.154;14.722;2024-01-30T10:33:34;102541.88;;;6.17
80962;BMP280;70424;55.154;14.722;2024-01-30T10:36:04;102520.50;;;6.08
80962;BMP280;70424;55.154;14.722;2024-01-30T10:38:30;102525.81;;;6.19
80962;BMP280;70424;55.154;14.722;2024-01-30T10:41:02;102513.47;;;6.18
80962;BMP280;70424;55.154;14.722;2024-01-30T10:43:32;102534.31;;;6.35
80962;BMP280;70424;55.154;14.722;2024-01-30T10:46:20;102532.31;;;6.35
80962;BMP280;70424;55.154;14.722;2024-01-30T10:48:57;102513.16;;;6.28
80962;BMP280;70424;55.154;14.722;2024-01-30T10:51:29;102522.94;;;6.36
80962;BMP280;70424;55.154;14.722;2024-01-30T10:53:55;102522.16;;;6.41
80962;BMP280;70424;55.154;14.722;2024-01-30T10:56:22;102532.00;;;6.44
80962;BMP280;70424;55.154;14.722;2024-01-30T10:58:51;102518.97;;;6.37
80962;BMP280;70424;55.154;14.722;2024-01-30T11:01:22;102533.91;;;6.49
80962;BMP280;70424;55.154;14.722;2024-01-30T11:03:51;102531.44;;;6.51
80962;BMP280;70424;55.154;14.722;2024-01-30T11:06:17;102513.50;;;6.43
80962;BMP280;70424;55.154;14.722;2024-01-30T11:08:45;102516.09;;;6.54
80962;BMP280;70424;55.154;14.722;2024-01-30T11:11:11;102515.13;;;6.51
80962;BMP280;70424;55.154;14.722;2024-01-30T11:13:37;102519.28;;;6.58
80962;BMP280;70424;55.154;14.722;2024-01-30T11:16:05;102487.78;;;6.44
80962;BMP280;70424;55.154;14.722;2024-01-30T11:18:33;102509.13;;;6.59
80962;BMP280;70424;55.154;14.722;2024-01-30T11:21:00;102511.91;;;6.53
80962;BMP280;70424;55.154;14.722;2024-01-30T11:23:28;102486.63;;;6.39
80962;BMP280;70424;55.154;14.722;2024-01-30T11:25:54;102501.25;;;6.55
80962;BMP280;70424;55.154;14.722;2024-01-30T11:28:21;102471.63;;;6.33
80962;BMP280;70424;55.154;14.722;2024-01-30T11:30:47;102486.31;;;6.43
80962;BMP280;70424;55.154;14.722;2024-01-30T11:33:26;102500.56;;;6.49
80962;BMP280;70424;55.154;14.722;2024-01-30T11:35:52;102476.00;;;6.36
80962;BMP280;70424;55.154;14.722;2024-01-30T11:38:18;102465.00;;;6.28
80962;BMP280;70424;55.154;14.722;2024-01-30T11:40:43;102473.25;;;6.41
80962;BMP280;70424;55.154;14.722;2024-01-30T11:43:09;102481.75;;;6.51
80962;BMP280;70424;55.154;14.722;2024-01-30T11:45:35;102458.75;;;6.33
80962;BMP280;70424;55.154;14.722;2024-01-30T11:48:02;102478.16;;;6.43
80962;BMP280;70424;55.154;14.722;2024-01-30T11:50:31;102455.03;;;6.36
80962;BMP280;70424;55.154;14.722;2024-01-30T11:52:57;102482.44;;;6.57
80962;BMP280;70424;55.154;14.722;2024-01-30T11:55:23;102472.31;;;6.58
80962;BMP280;70424;55.154;14.722;2024-01-30T11:57:48;102446.09;;;6.41
80962;BMP280;70424;55.154;14.722;2024-01-30T12:00:17;102468.88;;;6.57
80962;BMP280;70424;55.154;14.722;2024-01-30T12:02:44;102458.81;;;6.52
80962;BMP280;70424;55.154;14.722;2024-01-30T12:05:14;102441.84;;;6.46
80962;BMP280;70424;55.154;14.722;2024-01-30T12:07:39;102442.84;;;6.43
80962;BMP280;70424;55.154;14.722;2024-01-30T12:10:04;102439.13;;;6.46
80962;BMP280;70424;55.154;14.722;2024-01-30T12:12:31;102443.97;;;6.53
80962;BMP280;70424;55.154;14.722;2024-01-30T12:14:56;102425.56;;;6.46
80962;BMP280;70424;55.154;14.722;2024-01-30T12:17:28;102419.88;;;6.44
80962;BMP280;70424;55.154;14.722;2024-01-30T12:20:10;102432.81;;;6.57
80962;BMP280;70424;55.154;14.722;2024-01-30T12:22:38;102416.81;;;6.53
80962;BMP280;70424;55.154;14.722;2024-01-30T12:25:14;102418.19;;;6.60
80962;BMP280;70424;55.154;14.722;2024-01-30T12:27:42;102414.22;;;6.61
80962;BMP280;70424;55.154;14.722;2024-01-30T12:30:09;102396.59;;;6.48
80962;BMP280;70424;55.154;14.722;2024-01-30T12:32:35;102396.44;;;6.60
80962;BMP280;70424;55.154;14.722;2024-01-30T12:35:01;102401.56;;;6.63
80962;BMP280;70424;55.154;14.722;2024-01-30T12:37:27;102385.19;;;6.50
80962;BMP280;70424;55.154;14.722;2024-01-30T12:39:52;102369.00;;;6.44
80962;BMP280;70424;55.154;14.722;2024-01-30T12:42:20;102380.00;;;6.52
80962;BMP280;70424;55.154;14.722;2024-01-30T12:44:49;102401.56;;;6.63
80962;BMP280;70424;55.154;14.722;2024-01-30T12:47:15;102390.59;;;6.56
80962;BMP280;70424;55.154;14.722;2024-01-30T12:49:43;102400.31;;;6.64
80962;BMP280;70424;55.154;14.722;2024-01-30T12:52:10;102399.09;;;6.65
80962;BMP280;70424;55.154;14.722;2024-01-30T12:54:36;102401.66;;;6.58
80962;BMP280;70424;55.154;14.722;2024-01-30T12:57:02;102395.75;;;6.59
80962;BMP280;70424;55.154;14.722;2024-01-30T12:59:28;102388.09;;;6.58
80962;BMP280;70424;55.154;14.722;2024-01-30T13:01:53;102361.56;;;6.45
80962;BMP280;70424;55.154;14.722;2024-01-30T13:04:19;102361.44;;;6.56
80962;BMP280;70424;55.154;14.722;2024-01-30T13:06:44;102354.69;;;6.44
80962;BMP280;70424;55.154;14.722;2024-01-30T13:09:09;102356.50;;;6.55
80962;BMP280;70424;55.154;14.722;2024-01-30T13:11:35;102357.03;;;6.53
80962;BMP280;70424;55.154;14.722;2024-01-30T13:14:01;102340.88;;;6.42
80962;BMP280;70424;55.154;14.722;2024-01-30T13:16:26;102331.53;;;6.37
80962;BMP280;70424;55.154;14.722;2024-01-30T13:18:51;102339.09;;;6.44
80962;BMP280;70424;55.154;14.722;2024-01-30T13:21:17;102350.63;;;6.50
80962;BMP280;70424;55.154;14.722;2024-01-30T13:23:42;102329.78;;;6.40
80962;BMP280;70424;55.154;14.722;2024-01-30T13:26:08;102332.00;;;6.41
80962;BMP280;70424;55.154;14.722;2024-01-30T13:28:34;102335.91;;;6.46
80962;BMP280;70424;55.154;14.722;2024-01-30T13:30:59;102312.53;;;6.37
80962;BMP280;70424;55.154;14.722;2024-01-30T13:33:26;102336.63;;;6.46
80962;BMP280;70424;55.154;14.722;2024-01-30T13:35:51;102342.56;;;6.45
80962;BMP280;70424;55.154;14.722;2024-01-30T13:38:16;102336.31;;;6.50
80962;BMP280;70424;55.154;14.722;2024-01-30T13:40:42;102340.59;;;6.45
80962;BMP280;70424;55.154;14.722;2024-01-30T13:43:08;102339.41;;;6.41
80962;BMP280;70424;55.154;14.722;2024-01-30T13:45:33;102323.47;;;6.32
80962;BMP280;70424;55.154;14.722;2024-01-30T13:47:58;102306.28;;;6.23
80962;BMP280;70424;55.154;14.722;2024-01-30T13:50:24;102325.25;;;6.29
80962;BMP280;70424;55.154;14.722;2024-01-30T13:52:49;102324.06;;;6.24